createdAt,value
2022-11-22T00:00:56.843Z,-1.10
2022-11-22T00:03:24.835Z,-1.20
2022-11-22T00:05:54.159Z,-1.10
2022-11-22T00:08:22.207Z,-1.10
2022-11-22T00:10:50.577Z,-1.20
2022-11-22T00:13:18.790Z,-1.10
2022-11-22T00:15:47.113Z,-1.20
2022-11-22T00:18:15.163Z,-1.20
2022-11-22T00:20:43.160Z,-1.20
2022-11-22T00:23:12.500Z,-1.20
2022-11-22T00:25:40.514Z,-1.20
2022-11-22T00:28:08.519Z,-1.20
2022-11-22T00:30:36.562Z,-1.20
2022-11-22T00:33:04.655Z,-1.10
2022-11-22T00:35:32.714Z,-1.10
2022-11-22T00:38:00.765Z,-1.10
2022-11-22T00:40:30.153Z,-1.10
2022-11-22T00:42:58.153Z,-1.10
2022-11-22T00:45:26.416Z,-1.10
2022-11-22T00:47:54.435Z,-1.20
2022-11-22T00:50:22.409Z,-1.10
2022-11-22T00:52:50.490Z,-1.10
2022-11-22T00:55:18.595Z,-1.10
2022-11-22T00:57:47.956Z,-1.10
2022-11-22T01:00:16.646Z,-1.10
2022-11-22T01:02:44.641Z,-1.10
2022-11-22T01:05:12.817Z,-1.10
2022-11-22T01:07:40.923Z,-1.10
2022-11-22T01:10:09.742Z,-1.10
2022-11-22T01:12:37.757Z,-1.10
2022-11-22T01:15:08.306Z,-1.10
2022-11-22T01:17:36.340Z,-1.10
2022-11-22T01:20:05.012Z,-1.10
2022-11-22T01:22:33.086Z,-1.10
2022-11-22T01:25:01.067Z,-1.10
2022-11-22T01:27:29.119Z,-1.00
2022-11-22T01:29:57.083Z,-1.00
2022-11-22T01:32:26.502Z,-1.00
2022-11-22T01:34:54.476Z,-1.00
2022-11-22T01:37:22.494Z,-1.00
2022-11-22T01:39:50.495Z,-1.00
2022-11-22T01:42:18.511Z,-1.00
2022-11-22T01:44:49.511Z,-1.00
2022-11-22T01:47:22.132Z,-0.90
2022-11-22T01:49:56.113Z,-0.90
2022-11-22T01:52:26.931Z,-0.90
2022-11-22T01:55:01.741Z,-0.90
2022-11-22T01:57:34.974Z,-0.90
2022-11-22T02:00:05.497Z,-0.90
2022-11-22T02:02:34.350Z,-0.90
2022-11-22T02:05:07.445Z,-0.90
2022-11-22T02:07:42.530Z,-0.90
2022-11-22T02:10:11.418Z,-0.90
2022-11-22T02:12:40.190Z,-0.80
2022-11-22T02:15:09.246Z,-0.80
2022-11-22T02:17:37.244Z,-0.80
2022-11-22T02:20:08.956Z,-0.80
2022-11-22T02:22:46.141Z,-0.80
2022-11-22T02:25:19.532Z,-0.80
2022-11-22T02:27:49.817Z,-0.80
2022-11-22T02:30:18.331Z,-0.80
2022-11-22T02:32:46.470Z,-0.70
2022-11-22T02:35:20.059Z,-0.70
2022-11-22T02:37:49.882Z,-0.70
2022-11-22T02:40:18.834Z,-0.70
2022-11-22T02:42:51.757Z,-0.70
2022-11-22T02:45:19.916Z,-0.70
2022-11-22T02:47:47.898Z,-0.70
2022-11-22T02:50:16.138Z,-0.70
2022-11-22T02:52:44.128Z,-0.70
2022-11-22T02:55:12.265Z,-0.60
2022-11-22T02:57:40.287Z,-0.60
2022-11-22T03:00:11.610Z,-0.60
2022-11-22T03:02:39.608Z,-0.60
2022-11-22T03:05:07.995Z,-0.60
2022-11-22T03:07:36.143Z,-0.60
2022-11-22T03:10:04.768Z,-0.60
2022-11-22T03:12:32.727Z,-0.60
2022-11-22T03:15:00.855Z,-0.60
2022-11-22T03:17:30.239Z,-0.60
2022-11-22T03:19:58.246Z,-0.60
2022-11-22T03:22:26.243Z,-0.60
2022-11-22T03:24:54.281Z,-0.60
2022-11-22T03:27:22.284Z,-0.60
2022-11-22T03:29:50.261Z,-0.60
2022-11-22T03:32:18.252Z,-0.60
2022-11-22T03:34:47.706Z,-0.50
2022-11-22T03:37:15.827Z,-0.60
2022-11-22T03:39:43.834Z,-0.50
2022-11-22T03:42:14.518Z,-0.50
2022-11-22T03:44:44.853Z,-0.60
2022-11-22T03:47:12.877Z,-0.60
2022-11-22T03:49:40.864Z,-0.50
2022-11-22T03:52:10.373Z,-0.50
2022-11-22T03:54:38.450Z,-0.50
2022-11-22T03:57:06.688Z,-0.50
2022-11-22T03:59:34.751Z,-0.50
2022-11-22T04:02:02.802Z,-0.50
2022-11-22T04:04:30.889Z,-0.50
2022-11-22T04:06:58.931Z,-0.50
2022-11-22T04:09:28.483Z,-0.50
2022-11-22T04:11:56.782Z,-0.50
2022-11-22T04:14:42.478Z,-0.50
2022-11-22T04:17:13.827Z,-0.50
2022-11-22T04:20:02.708Z,-0.40
2022-11-22T04:22:29.717Z,-0.40
2022-11-22T04:25:16.868Z,-0.50
2022-11-22T04:27:44.865Z,-0.40
2022-11-22T04:30:18.926Z,-0.40
2022-11-22T04:32:47.518Z,-0.50
2022-11-22T04:35:16.916Z,-0.40
2022-11-22T04:37:50.736Z,-0.50
2022-11-22T04:40:20.118Z,-0.40
2022-11-22T04:43:05.453Z,-0.40
2022-11-22T04:45:33.464Z,-0.40
2022-11-22T04:48:01.457Z,-0.40
2022-11-22T04:50:48.588Z,-0.40
2022-11-22T04:53:17.746Z,-0.40
2022-11-22T04:55:48.492Z,-0.40
2022-11-22T04:58:16.598Z,-0.40
2022-11-22T05:00:45.232Z,-0.40
2022-11-22T05:03:13.346Z,-0.40
2022-11-22T05:05:42.961Z,-0.40
2022-11-22T05:08:11.053Z,-0.40
2022-11-22T05:10:53.343Z,-0.40
2022-11-22T05:13:25.251Z,-0.40
2022-11-22T05:15:53.345Z,-0.30
2022-11-22T05:18:22.852Z,-0.30
2022-11-22T05:20:51.742Z,-0.30
2022-11-22T05:23:37.951Z,-0.30
2022-11-22T05:26:06.487Z,-0.30
2022-11-22T05:28:37.723Z,-0.30
2022-11-22T05:31:10.487Z,-0.30
2022-11-22T05:33:39.855Z,-0.30
2022-11-22T05:36:08.772Z,-0.30
2022-11-22T05:38:37.974Z,-0.20
2022-11-22T05:41:07.418Z,-0.30
2022-11-22T05:43:37.135Z,-0.20
2022-11-22T05:46:09.503Z,-0.20
2022-11-22T05:48:38.078Z,-0.20
2022-11-22T05:51:07.131Z,-0.20
2022-11-22T05:53:35.696Z,-0.20
2022-11-22T05:56:07.726Z,-0.20
2022-11-22T05:58:37.475Z,-0.10
2022-11-22T06:01:07.397Z,-0.10
2022-11-22T06:03:36.214Z,-0.10
2022-11-22T06:06:05.064Z,-0.10
2022-11-22T06:08:35.003Z,-0.10
2022-11-22T06:11:07.028Z,0.00
2022-11-22T06:13:37.688Z,0.00
2022-11-22T06:16:06.359Z,0.00
2022-11-22T06:18:34.784Z,0.00
2022-11-22T06:21:04.337Z,0.00
2022-11-22T06:23:32.569Z,0.00
2022-11-22T06:26:01.393Z,0.10
2022-11-22T06:28:31.330Z,0.10
2022-11-22T06:31:04.331Z,0.10
2022-11-22T06:33:32.790Z,0.10
2022-11-22T06:36:03.788Z,0.10
2022-11-22T06:38:31.811Z,0.10
2022-11-22T06:41:02.935Z,0.10
2022-11-22T06:43:31.898Z,0.10
2022-11-22T06:46:00.850Z,0.10
2022-11-22T06:48:31.757Z,0.10
2022-11-22T06:51:00.424Z,0.20
2022-11-22T06:53:46.096Z,0.10
2022-11-22T06:56:16.495Z,0.20
2022-11-22T06:58:44.784Z,0.20
2022-11-22T07:01:15.346Z,0.20
2022-11-22T07:03:45.388Z,0.20
2022-11-22T07:06:15.220Z,0.20
2022-11-22T07:08:44.272Z,0.20
2022-11-22T07:11:14.152Z,0.30
2022-11-22T07:13:42.513Z,0.30
2022-11-22T07:16:12.998Z,0.30
2022-11-22T07:18:41.550Z,0.30
2022-11-22T07:21:13.658Z,0.30
2022-11-22T07:23:43.159Z,0.30
2022-11-22T07:26:11.910Z,0.30
2022-11-22T07:28:40.215Z,0.30
2022-11-22T07:31:10.583Z,0.40
2022-11-22T07:33:39.084Z,0.40
2022-11-22T07:36:09.163Z,0.40
2022-11-22T07:38:39.081Z,0.40
2022-11-22T07:41:08.496Z,0.40
2022-11-22T07:43:37.145Z,0.40
2022-11-22T07:46:07.554Z,0.40
2022-11-22T07:48:36.557Z,0.40
2022-11-22T07:51:06.086Z,0.40
2022-11-22T07:53:34.277Z,0.40
2022-11-22T07:56:04.375Z,0.40
2022-11-22T07:58:32.848Z,0.40
2022-11-22T08:01:06.511Z,0.40
2022-11-22T08:03:34.820Z,0.40
2022-11-22T08:06:03.617Z,0.50
2022-11-22T08:08:31.605Z,0.50
2022-11-22T08:10:59.630Z,0.50
2022-11-22T08:13:29.495Z,0.50
2022-11-22T08:16:05.093Z,0.50
2022-11-22T08:18:34.071Z,0.50
2022-11-22T08:21:06.588Z,0.50
2022-11-22T08:23:35.356Z,0.50
2022-11-22T08:26:03.500Z,0.50
2022-11-22T08:28:33.630Z,0.50
2022-11-22T08:31:03.778Z,0.50
2022-11-22T08:33:32.003Z,0.50
2022-11-22T08:36:01.190Z,0.50
2022-11-22T08:38:29.441Z,0.50
2022-11-22T08:40:57.483Z,0.60
2022-11-22T08:43:25.712Z,0.50
2022-11-22T08:45:57.867Z,0.60
2022-11-22T08:48:26.222Z,0.60
2022-11-22T08:50:55.775Z,0.60
2022-11-22T08:53:24.360Z,0.60
2022-11-22T08:55:52.737Z,0.60
2022-11-22T08:58:20.767Z,0.60
2022-11-22T09:00:48.849Z,0.60
2022-11-22T09:03:18.204Z,0.60
2022-11-22T09:08:36.674Z,0.60
2022-11-22T09:11:08.449Z,0.60
2022-11-22T09:13:36.928Z,0.70
2022-11-22T09:16:05.412Z,0.70
2022-11-22T09:18:35.034Z,0.70
2022-11-22T09:21:04.676Z,0.70
2022-11-22T09:23:33.013Z,0.70
2022-11-22T09:26:02.461Z,0.70
2022-11-22T09:28:30.488Z,0.70
2022-11-22T09:31:02.465Z,0.70
2022-11-22T09:33:31.064Z,0.80
2022-11-22T09:36:05.332Z,0.80
2022-11-22T09:38:34.209Z,0.80
2022-11-22T09:41:07.935Z,0.80
2022-11-22T09:43:46.657Z,0.80
2022-11-22T09:46:23.580Z,0.80
2022-11-22T09:49:12.904Z,0.80
2022-11-22T09:51:47.557Z,0.80
2022-11-22T09:54:21.465Z,0.80
2022-11-22T09:56:52.509Z,0.80
2022-11-22T09:59:24.209Z,0.80
2022-11-22T10:01:54.878Z,0.90
2022-11-22T10:04:26.919Z,0.90
2022-11-22T10:07:00.227Z,0.90
2022-11-22T10:09:37.798Z,0.90
2022-11-22T10:12:12.391Z,0.90
2022-11-22T10:14:48.827Z,0.90
2022-11-22T10:17:26.737Z,0.90
2022-11-22T10:20:02.911Z,1.00
2022-11-22T10:22:34.679Z,1.00
2022-11-22T10:25:05.069Z,1.00
2022-11-22T10:27:34.060Z,1.10
2022-11-22T10:30:06.119Z,1.00
2022-11-22T10:32:40.175Z,1.10
2022-11-22T10:35:24.829Z,1.10
2022-11-22T10:38:03.843Z,1.10
2022-11-22T10:40:44.176Z,1.10
2022-11-22T10:43:25.556Z,1.20
2022-11-22T10:46:02.312Z,1.20
2022-11-22T10:48:36.982Z,1.20
2022-11-22T10:51:15.458Z,1.20
2022-11-22T10:53:58.869Z,1.30
2022-11-22T10:56:35.842Z,1.30
2022-11-22T10:59:32.935Z,1.30
2022-11-22T11:02:16.348Z,1.40
2022-11-22T11:04:45.714Z,1.40
2022-11-22T11:07:17.972Z,1.40
2022-11-22T11:12:43.280Z,1.50
2022-11-22T11:15:19.299Z,1.50
2022-11-22T11:17:50.829Z,1.50
2022-11-22T11:20:24.579Z,1.60
2022-11-22T11:23:13.647Z,1.60
2022-11-22T11:25:43.707Z,1.60
2022-11-22T11:28:18.079Z,1.70
2022-11-22T11:30:49.146Z,1.60
2022-11-22T11:33:24.841Z,1.70
2022-11-22T11:35:56.712Z,1.70
2022-11-22T11:38:33.416Z,1.70
2022-11-22T11:41:17.975Z,1.70
2022-11-22T11:43:46.974Z,1.70
2022-11-22T11:46:18.943Z,1.80
2022-11-22T11:48:47.720Z,1.80
2022-11-22T11:51:19.465Z,1.80
2022-11-22T11:53:59.916Z,1.80
2022-11-22T11:56:41.204Z,1.90
2022-11-22T11:59:14.515Z,1.90
2022-11-22T12:01:51.236Z,1.90
2022-11-22T12:04:23.366Z,1.90
2022-11-22T12:07:02.839Z,2.00
2022-11-22T12:09:35.041Z,2.00
2022-11-22T12:12:13.657Z,2.00
2022-11-22T12:15:09.551Z,2.00
2022-11-22T12:17:41.359Z,2.10
2022-11-22T12:20:15.973Z,2.10
2022-11-22T12:22:52.311Z,2.10
2022-11-22T12:25:34.759Z,2.10
2022-11-22T12:28:17.769Z,2.10
2022-11-22T12:30:47.682Z,2.20
2022-11-22T12:33:20.619Z,2.20
2022-11-22T12:35:50.801Z,2.20
2022-11-22T12:38:23.893Z,2.20
2022-11-22T12:40:57.200Z,2.20
2022-11-22T12:43:29.998Z,2.20
2022-11-22T12:46:01.318Z,2.30
2022-11-22T12:48:35.753Z,2.30
2022-11-22T12:51:12.238Z,2.30
2022-11-22T12:53:43.910Z,2.30
2022-11-22T12:56:22.483Z,2.30
2022-11-22T12:58:58.491Z,2.30
2022-11-22T13:01:29.940Z,2.30
2022-11-22T13:04:02.649Z,2.30
2022-11-22T13:06:46.711Z,2.30
2022-11-22T13:09:19.849Z,2.40
2022-11-22T13:11:51.837Z,2.40
2022-11-22T13:14:24.750Z,2.40
2022-11-22T13:16:53.021Z,2.40
2022-11-22T13:19:26.130Z,2.50
2022-11-22T13:22:14.712Z,2.50
2022-11-22T13:24:57.486Z,2.50
2022-11-22T13:27:30.742Z,2.50
2022-11-22T13:30:02.577Z,2.50
2022-11-22T13:32:33.436Z,2.50
2022-11-22T13:35:06.044Z,2.50
2022-11-22T13:37:39.256Z,2.60
2022-11-22T13:40:18.991Z,2.60
2022-11-22T13:42:46.983Z,2.60
2022-11-22T13:45:23.318Z,2.60
2022-11-22T13:47:51.635Z,2.60
2022-11-22T13:50:53.583Z,2.60
2022-11-22T13:53:30.458Z,2.60
2022-11-22T13:56:09.949Z,2.60
2022-11-22T13:58:55.648Z,2.60
2022-11-22T14:01:59.559Z,2.60
2022-11-22T14:04:32.594Z,2.60
2022-11-22T14:07:04.195Z,2.60
2022-11-22T14:09:39.892Z,2.60
2022-11-22T14:12:31.488Z,2.60
2022-11-22T14:15:27.280Z,2.60
2022-11-22T14:18:10.747Z,2.70
2022-11-22T14:20:49.026Z,2.60
2022-11-22T14:23:30.746Z,2.60
2022-11-22T14:26:16.719Z,2.60
2022-11-22T14:29:12.861Z,2.60
2022-11-22T14:31:41.646Z,2.60
2022-11-22T14:34:21.243Z,2.60
2022-11-22T14:37:22.348Z,2.60
2022-11-22T14:40:13.762Z,2.60
2022-11-22T14:42:57.164Z,2.60
2022-11-22T14:45:31.911Z,2.50
2022-11-22T14:48:04.404Z,2.50
2022-11-22T14:50:42.819Z,2.50
2022-11-22T14:53:22.329Z,2.50
2022-11-22T14:55:53.428Z,2.50
2022-11-22T14:58:26.668Z,2.50
2022-11-22T15:01:14.982Z,2.50
2022-11-22T15:09:13.291Z,2.40
2022-11-22T15:09:16.598Z,2.40
2022-11-22T15:10:27.940Z,2.40
2022-11-22T15:13:19.145Z,2.40
2022-11-22T15:59:11.456Z,2.20
2022-11-22T16:01:41.176Z,2.10
2022-11-22T16:04:21.328Z,2.10
2022-11-22T16:06:50.137Z,2.10
2022-11-22T16:09:26.552Z,2.10
2022-11-22T16:12:01.199Z,2.10
2022-11-22T16:14:55.181Z,2.10
2022-11-22T16:17:28.860Z,2.10
2022-11-22T16:20:28.864Z,2.00
2022-11-22T16:23:13.935Z,2.10
2022-11-22T16:25:43.930Z,2.00
2022-11-22T16:28:33.563Z,2.00
2022-11-22T16:31:06.276Z,2.10
2022-11-22T16:33:34.293Z,2.00
2022-11-22T16:36:03.183Z,2.00
2022-11-22T16:38:31.218Z,2.00
2022-11-22T16:41:00.072Z,2.00
2022-11-22T16:43:33.344Z,2.00
2022-11-22T16:46:03.022Z,2.00
2022-11-22T16:48:33.224Z,2.00
2022-11-22T16:51:04.995Z,2.00
2022-11-22T16:53:40.968Z,2.00
2022-11-22T16:56:10.335Z,2.00
2022-11-22T16:58:38.291Z,2.00
2022-11-22T17:01:09.613Z,2.00
2022-11-22T17:03:39.417Z,2.00
2022-11-22T17:06:07.759Z,2.00
2022-11-22T17:08:35.746Z,2.00
2022-11-22T17:11:03.814Z,2.00
2022-11-22T17:13:31.811Z,2.00
2022-11-22T17:15:59.872Z,2.00
2022-11-22T17:18:29.266Z,2.00
2022-11-22T17:20:57.591Z,2.00
2022-11-22T17:23:31.800Z,2.00
2022-11-22T17:25:59.867Z,2.00
2022-11-22T17:28:27.886Z,2.00
2022-11-22T17:30:58.887Z,2.00
2022-11-22T17:33:28.290Z,2.00
2022-11-22T17:35:56.931Z,2.00
2022-11-22T17:38:25.255Z,2.00
2022-11-22T17:41:00.098Z,2.00
2022-11-22T17:43:28.162Z,2.00
2022-11-22T17:45:56.377Z,2.00
2022-11-22T17:48:24.353Z,2.00
2022-11-22T17:50:53.683Z,2.00
2022-11-22T17:53:21.713Z,2.00
2022-11-22T17:56:09.579Z,1.90
2022-11-22T17:58:38.292Z,1.90
2022-11-22T18:01:07.791Z,2.00
2022-11-22T18:03:36.165Z,1.90
2022-11-22T18:06:06.139Z,1.90
2022-11-22T18:08:34.385Z,1.90
2022-11-22T18:11:03.022Z,1.90
2022-11-22T18:13:33.351Z,1.90
2022-11-22T18:16:03.922Z,2.00
2022-11-22T18:18:55.639Z,1.90
2022-11-22T18:21:24.301Z,1.90
2022-11-22T18:23:52.385Z,1.90
2022-11-22T18:31:57.995Z,1.90
2022-11-22T18:34:26.551Z,1.90
2022-11-22T18:37:00.771Z,1.90
2022-11-22T18:39:30.757Z,1.90
2022-11-22T18:41:59.064Z,1.80
2022-11-22T18:44:27.140Z,1.90
2022-11-22T18:46:55.109Z,1.90
2022-11-22T18:49:23.734Z,1.90
2022-11-22T18:51:51.713Z,1.90
2022-11-22T18:54:22.103Z,1.90
2022-11-22T18:56:50.361Z,1.90
2022-11-22T18:59:18.820Z,1.80
2022-11-22T19:01:47.202Z,1.80
2022-11-22T19:04:16.327Z,1.80
2022-11-22T19:06:45.102Z,1.80
2022-11-22T19:09:13.369Z,1.80
2022-11-22T19:11:42.744Z,1.80
2022-11-22T19:14:11.177Z,1.80
2022-11-22T19:16:39.252Z,1.80
2022-11-22T19:19:08.385Z,1.70
2022-11-22T19:21:36.522Z,1.80
2022-11-22T19:24:04.980Z,1.70
2022-11-22T19:26:32.993Z,1.70
2022-11-22T19:29:03.652Z,1.70
2022-11-22T19:31:32.349Z,1.70
2022-11-22T19:34:01.110Z,1.70
2022-11-22T19:36:34.339Z,1.70
2022-11-22T19:39:04.412Z,1.70
2022-11-22T19:41:33.266Z,1.70
2022-11-22T19:44:02.865Z,1.70
2022-11-22T19:46:31.324Z,1.70
2022-11-22T19:49:01.154Z,1.70
2022-11-22T19:51:30.819Z,1.70
2022-11-22T19:54:00.279Z,1.70
2022-11-22T19:56:30.589Z,1.70
2022-11-22T19:59:00.052Z,1.60
2022-11-22T20:01:31.308Z,1.70
2022-11-22T20:04:01.457Z,1.70
2022-11-22T20:06:29.874Z,1.50
2022-11-22T20:09:01.921Z,1.60
2022-11-22T20:11:29.987Z,1.60
2022-11-22T20:13:58.012Z,1.60
2022-11-22T20:16:28.039Z,1.50
2022-11-22T20:18:58.960Z,1.50
2022-11-22T20:21:28.917Z,1.60
2022-11-22T20:23:57.079Z,1.60
2022-11-22T20:26:25.718Z,1.60
2022-11-22T20:28:56.945Z,1.50
2022-11-22T20:31:25.322Z,1.50
2022-11-22T20:33:54.979Z,1.50
2022-11-22T20:36:25.877Z,1.50
2022-11-22T20:38:54.751Z,1.50
2022-11-22T20:41:25.311Z,1.40
2022-11-22T20:43:53.649Z,1.40
2022-11-22T20:46:23.235Z,1.50
2022-11-22T20:48:53.057Z,1.40
2022-11-22T20:51:23.131Z,1.40
2022-11-22T20:53:53.427Z,1.40
2022-11-22T20:56:22.126Z,1.40
2022-11-22T20:58:50.316Z,1.40
2022-11-22T21:01:20.352Z,1.40
2022-11-22T21:03:48.882Z,1.30
2022-11-22T21:06:18.605Z,1.30
2022-11-22T21:08:46.862Z,1.40
2022-11-22T21:11:18.041Z,1.30
2022-11-22T21:13:47.141Z,1.30
2022-11-22T21:16:23.413Z,1.30
2022-11-22T21:18:52.961Z,1.30
2022-11-22T21:21:23.027Z,1.30
2022-11-22T21:23:52.318Z,1.20
2022-11-22T21:26:22.308Z,1.20
2022-11-22T21:28:50.589Z,1.30
2022-11-22T21:31:19.378Z,1.20
2022-11-22T21:33:47.404Z,1.20
2022-11-22T21:36:15.490Z,1.30
2022-11-22T21:38:43.576Z,1.20
2022-11-22T21:44:04.225Z,1.20
2022-11-22T21:46:32.237Z,1.20
2022-11-22T21:49:00.251Z,1.20
2022-11-22T21:51:28.254Z,1.20
2022-11-22T21:53:59.550Z,1.20
2022-11-22T21:56:27.731Z,1.20
2022-11-22T21:58:55.744Z,1.10
2022-11-22T22:01:25.569Z,1.10
2022-11-22T22:03:53.759Z,1.10
2022-11-22T22:06:22.153Z,1.20
2022-11-22T22:08:50.495Z,1.10
2022-11-22T22:11:18.665Z,1.10
2022-11-22T22:13:46.633Z,1.20
2022-11-22T22:16:19.129Z,1.10
2022-11-22T22:18:48.799Z,1.10
2022-11-22T22:21:18.536Z,1.20
2022-11-22T22:23:47.255Z,1.10
2022-11-22T22:26:17.298Z,1.20
2022-11-22T22:28:46.189Z,1.10
2022-11-22T22:31:16.867Z,1.20
2022-11-22T22:33:46.537Z,1.20
2022-11-22T22:36:16.201Z,1.20
2022-11-22T22:38:44.224Z,1.20
2022-11-22T22:41:14.121Z,1.20
2022-11-22T22:43:43.984Z,1.20
2022-11-22T22:46:14.606Z,1.20
2022-11-22T22:48:43.254Z,1.20
2022-11-22T22:51:14.070Z,1.20
2022-11-22T22:53:44.598Z,1.20
2022-11-22T22:56:14.149Z,1.30
2022-11-22T22:58:42.860Z,1.30
2022-11-22T23:01:13.762Z,1.20
2022-11-22T23:03:42.078Z,1.30
2022-11-22T23:06:12.263Z,1.30
2022-11-22T23:08:40.963Z,1.30
2022-11-22T23:11:11.740Z,1.40
2022-11-22T23:13:42.255Z,1.40
2022-11-22T23:16:12.376Z,1.30
2022-11-22T23:18:42.373Z,1.40
2022-11-22T23:21:12.861Z,1.40
2022-11-22T23:23:40.867Z,1.40
2022-11-22T23:26:13.135Z,1.40
2022-11-22T23:28:41.294Z,1.50
2022-11-22T23:31:10.767Z,1.50
2022-11-22T23:33:38.866Z,1.50
2022-11-22T23:36:08.540Z,1.60
2022-11-22T23:38:36.788Z,1.60
2022-11-22T23:41:04.933Z,1.60
2022-11-22T23:43:34.620Z,1.60
2022-11-22T23:46:02.596Z,1.60
2022-11-22T23:48:30.588Z,1.60
2022-11-22T23:51:04.253Z,1.60
2022-11-22T23:53:32.337Z,1.70
2022-11-22T23:56:05.918Z,1.70
2022-11-22T23:58:35.829Z,1.80
